Ubc Bremen — P3ZA7 — position and weather

sailwx.info

Track history (hours):
 
Tides and Currents Weather Stations Pressure Air Temp Water Temp Dewpoint Dewpoint Depression Visibility Wind Speed Wind Dir Waves Ship Positions

Ubc Bremen

Last reported at 2018-Apr-22 07:57 UTC. Time now 2018-Apr-24 04:58 UTC.
Position N 37°05' E 023°55'.

Length 154 m; draft 8.8 m.

Type: Cargo ship. MMSI: 21260200.

Date/timePositionNaut miles runAvg speedWind from/ knotsBaromVisibWave heightAir tempDewpointWater temp
2018-Apr-22 07:57N 37°05' E 023°55'510.7
2018-Apr-22 07:28N 37°10' E 023°51'1 2.0
2018-Apr-22 06:58N 37°11' E 023°51'1 1.3
2018-Apr-22 06:30N 37°12' E 023°52'1 1.3
2018-Apr-22 05:59N 37°12' E 023°52'1 1.4
2018-Apr-22 05:30N 37°13' E 023°52'5 1.2
2018-Apr-22 01:18N 37°17' E 023°55'1 2.5
2018-Apr-22 00:55N 37°18' E 023°56'7 0.6
2018-Apr-21 12:23N 37°20' E 023°47'11 3.1
2018-Apr-21 08:51N 37°31' E 023°44'3 7.4
2018-Apr-21 08:30N 37°34' E 023°45'612.9
2018-Apr-21 08:00N 37°40' E 023°42'612.9
2018-Apr-21 07:30N 37°45' E 023°39'612.2
2018-Apr-21 07:00N 37°51' E 023°36'2 4.2
2018-Apr-21 06:30N 37°53' E 023°35'2 2.9
2018-Apr-21 06:00N 37°53' E 023°33'0 0.8
2018-Apr-21 05:30N 37°54' E 023°32'0 0.3
2018-Apr-21 05:00N 37°54' E 023°32'0 0.1
2018-Apr-21 04:29N 37°54' E 023°32'0 0.0
2018-Apr-21 03:59N 37°54' E 023°32'0 0.0
2018-Apr-21 03:29N 37°54' E 023°32'0 0.1
2018-Apr-21 02:59N 37°54' E 023°32'0 0.1
2018-Apr-21 02:29N 37°54' E 023°32'0 0.0
2018-Apr-21 01:59N 37°54' E 023°32'0 0.0
2018-Apr-21 01:29N 37°54' E 023°32'0 0.0
2018-Apr-21 00:58N 37°54' E 023°32'0 0.0
2018-Apr-21 00:28N 37°54' E 023°32'0 0.2
2018-Apr-20 23:58N 37°54' E 023°32'0 0.0
2018-Apr-20 23:28N 37°54' E 023°32'0 0.0
2018-Apr-20 22:58N 37°54' E 023°32'0 0.2
2018-Apr-20 22:28N 37°54' E 023°32'0 0.0
2018-Apr-20 22:00N 37°54' E 023°32'0 0.0
2018-Apr-20 21:30N 37°54' E 023°32'0 0.0
2018-Apr-20 21:00N 37°54' E 023°32'0 0.1
2018-Apr-20 20:29N 37°54' E 023°32'0 0.1
2018-Apr-20 19:59N 37°54' E 023°32'0 0.1
2018-Apr-20 19:29N 37°54' E 023°32'0 0.1
2018-Apr-20 18:59N 37°54' E 023°32'0 0.1
2018-Apr-20 18:29N 37°54' E 023°32'0 0.1
2018-Apr-20 17:59N 37°54' E 023°32'0 0.1
2018-Apr-20 17:29N 37°54' E 023°32'0 0.0
2018-Apr-20 16:59N 37°54' E 023°32'0 0.1
2018-Apr-20 16:29N 37°54' E 023°32'0 0.1
2018-Apr-20 15:58N 37°54' E 023°32'0 0.2
2018-Apr-20 15:28N 37°54' E 023°32'0 0.1
2018-Apr-20 14:58N 37°54' E 023°32'0 0.1
2018-Apr-20 14:28N 37°54' E 023°32'0 0.2
2018-Apr-20 14:00N 37°54' E 023°32'0 0.1
2018-Apr-20 13:30N 37°54' E 023°33'0 0.0
2018-Apr-20 13:00N 37°54' E 023°33'0 0.1
2018-Apr-20 12:29N 37°54' E 023°33'0 0.1
2018-Apr-20 11:59N 37°54' E 023°32'0 0.1
2018-Apr-20 11:29N 37°54' E 023°32'0 0.4
2018-Apr-20 10:58N 37°54' E 023°33'0 0.1
2018-Apr-20 10:30N 37°54' E 023°33'0 0.1
2018-Apr-20 09:50N 37°54' E 023°33'0 0.3
2018-Apr-20 09:29N 37°54' E 023°32'0 0.2
2018-Apr-20 08:59N 37°54' E 023°33'0 0.3
2018-Apr-20 08:29N 37°54' E 023°33'2 3.9
2018-Apr-20 08:00N 37°54' E 023°35'3 5.0
2018-Apr-20 07:30N 37°57' E 023°36'2 4.2
2018-Apr-20 07:00N 37°57' E 023°33'0 0.1
2018-Apr-20 06:30N 37°58' E 023°33'0 0.0
2018-Apr-20 06:00N 37°58' E 023°33'0 0.0
2018-Apr-20 05:29N 37°58' E 023°33'0 0.0
2018-Apr-20 04:59N 37°58' E 023°33'0 0.0
2018-Apr-20 04:29N 37°57' E 023°33'0 0.0
2018-Apr-20 03:59N 37°58' E 023°33'0 0.0
2018-Apr-20 03:29N 37°58' E 023°33'0 0.0
2018-Apr-20 02:59N 37°58' E 023°33'0 0.0
2018-Apr-20 02:29N 37°58' E 023°33'0 0.0
2018-Apr-20 02:00N 37°58' E 023°33'0 0.0
2018-Apr-20 01:28N 37°58' E 023°33'0 0.0
2018-Apr-20 00:58N 37°58' E 023°33'0 0.0
2018-Apr-20 00:28N 37°58' E 023°33'0 0.0
2018-Apr-19 23:57N 37°58' E 023°33'0 0.1
2018-Apr-19 23:30N 37°58' E 023°33'0 0.0
2018-Apr-19 22:55N 37°58' E 023°33'0 0.0
2018-Apr-19 22:28N 37°58' E 023°33'0 0.0
2018-Apr-19 21:58N 37°58' E 023°33'0 0.0
2018-Apr-19 21:28N 37°58' E 023°33'0 0.0
2018-Apr-19 20:58N 37°58' E 023°33'0 0.0
2018-Apr-19 20:29N 37°58' E 023°33'0 0.0
2018-Apr-19 19:58N 37°58' E 023°33'0 0.0
2018-Apr-19 19:28N 37°58' E 023°33'0 0.0
2018-Apr-19 18:58N 37°58' E 023°33'0 0.0
2018-Apr-19 18:28N 37°58' E 023°33'0 0.0
2018-Apr-19 17:58N 37°58' E 023°33'0 0.0
2018-Apr-19 17:25N 37°57' E 023°33'0 0.0
2018-Apr-19 17:00N 37°58' E 023°33'0 0.0
2018-Apr-19 16:30N 37°58' E 023°33'0 0.0
2018-Apr-19 16:00N 37°57' E 023°33'0 0.0
2018-Apr-19 15:30N 37°58' E 023°33'0 0.0
2018-Apr-19 15:00N 37°58' E 023°33'0 0.0
2018-Apr-19 14:30N 37°58' E 023°33'0 0.0
2018-Apr-19 14:00N 37°58' E 023°33'0 0.0
2018-Apr-19 13:27N 37°58' E 023°33'0 0.0
2018-Apr-19 13:00N 37°58' E 023°33'0 0.0
2018-Apr-19 12:30N 37°58' E 023°33'0 0.0
2018-Apr-19 12:00N 37°58' E 023°33'0 0.0
2018-Apr-19 11:30N 37°58' E 023°33'0 0.0
2018-Apr-19 11:00N 37°58' E 023°33'0 0.0
2018-Apr-19 10:29N 37°58' E 023°33'0 0.0
2018-Apr-19 09:58N 37°58' E 023°33'0 0.0
2018-Apr-19 09:28N 37°58' E 023°33'0 0.1
2018-Apr-19 08:58N 37°57' E 023°33'0 0.1
2018-Apr-19 08:28N 37°58' E 023°33'0 0.0
2018-Apr-19 07:58N 37°58' E 023°33'0 0.0
2018-Apr-19 07:28N 37°57' E 023°33'0 0.0
2018-Apr-19 06:58N 37°58' E 023°33'0 0.0
2018-Apr-19 06:30N 37°58' E 023°33'0 0.0
2018-Apr-19 06:00N 37°58' E 023°33'0 0.0
2018-Apr-19 05:30N 37°58' E 023°33'0 0.0
2018-Apr-19 05:00N 37°58' E 023°33'0 0.0
2018-Apr-19 04:30N 37°58' E 023°33'0 0.0
2018-Apr-19 03:58N 37°58' E 023°33'0 0.0
2018-Apr-19 03:28N 37°58' E 023°33'0 0.0
2018-Apr-19 02:58N 37°58' E 023°33'0 0.0
2018-Apr-19 02:28N 37°58' E 023°33'0 0.0
2018-Apr-19 01:58N 37°58' E 023°33'0 0.0
2018-Apr-19 01:28N 37°58' E 023°33'0 0.0
2018-Apr-19 00:58N 37°58' E 023°33'0 0.0
2018-Apr-19 00:28N 37°58' E 023°33'0 0.0
2018-Apr-18 23:58N 37°58' E 023°33'0 0.1
2018-Apr-18 23:28N 37°58' E 023°33'0 0.0
2018-Apr-18 23:00N 37°58' E 023°33'0 0.0
2018-Apr-18 22:30N 37°58' E 023°33'0 0.0
2018-Apr-18 22:00N 37°58' E 023°33'0 0.0
2018-Apr-18 21:29N 37°58' E 023°33'0 0.0
2018-Apr-18 20:59N 37°58' E 023°33'0 0.0
2018-Apr-18 20:29N 37°57' E 023°33'0 0.0
2018-Apr-18 19:59N 37°58' E 023°33'0 0.0
2018-Apr-18 19:29N 37°58' E 023°33'0 0.0
2018-Apr-18 18:59N 37°58' E 023°33'0 0.0
2018-Apr-18 18:29N 37°58' E 023°33'0 0.0
2018-Apr-18 17:59N 37°58' E 023°33'0 0.0
2018-Apr-18 17:29N 37°57' E 023°33'0 0.1
2018-Apr-18 16:59N 37°58' E 023°33'0 0.0
2018-Apr-18 16:29N 37°58' E 023°33'0 0.0
2018-Apr-18 15:59N 37°58' E 023°33'0 0.0
2018-Apr-18 15:29N 37°58' E 023°33'0 0.0
2018-Apr-18 14:59N 37°58' E 023°33'0 0.0
2018-Apr-18 14:29N 37°58' E 023°33'0 0.0
2018-Apr-18 13:58N 37°58' E 023°33'0 0.0
2018-Apr-18 13:28N 37°58' E 023°33'0 0.0
2018-Apr-18 12:58N 37°58' E 023°33'0 0.0
2018-Apr-18 12:28N 37°58' E 023°33'0 0.0
2018-Apr-18 11:58N 37°57' E 023°33'0 0.0
2018-Apr-18 11:31N 37°58' E 023°33'0 0.0
2018-Apr-18 10:57N 37°58' E 023°33'0 0.0
2018-Apr-18 10:30N 37°58' E 023°33'0 0.0
2018-Apr-18 10:00N 37°58' E 023°33'0 0.0
2018-Apr-18 09:30N 37°57' E 023°33'0 0.0
2018-Apr-18 09:00N 37°57' E 023°33'0 0.1
2018-Apr-18 08:30N 37°58' E 023°33'0 0.0
2018-Apr-18 07:58N 37°58' E 023°33'0 0.0
2018-Apr-18 07:28N 37°57' E 023°33'0 0.0
2018-Apr-18 06:59N 37°57' E 023°33'0 0.0
2018-Apr-18 06:29N 37°57' E 023°33'0 0.0
2018-Apr-18 05:56N 37°58' E 023°33'0 0.0
2018-Apr-18 05:29N 37°58' E 023°33'0 0.0
2018-Apr-18 04:59N 37°58' E 023°33'0 0.0
2018-Apr-18 04:29N 37°58' E 023°33'0 0.0
2018-Apr-18 03:56N 37°58' E 023°33'0 0.0
2018-Apr-18 03:29N 37°58' E 023°33'0 0.0
2018-Apr-18 02:59N 37°58' E 023°33'0 0.0
2018-Apr-18 02:29N 37°58' E 023°33'0 0.0
2018-Apr-18 01:58N 37°58' E 023°33'0 0.0
2018-Apr-18 01:30N 37°58' E 023°33'0 0.0
2018-Apr-18 00:59N 37°58' E 023°33'0 0.1
2018-Apr-18 00:29N 37°58' E 023°33'0 0.0
2018-Apr-17 23:59N 37°58' E 023°33'0 0.1
2018-Apr-17 23:29N 37°58' E 023°33'0 0.0
2018-Apr-17 22:59N 37°58' E 023°33'0 0.0
2018-Apr-17 22:29N 37°58' E 023°33'0 0.0
2018-Apr-17 21:59N 37°58' E 023°33'0 0.0
2018-Apr-17 21:29N 37°58' E 023°33'0 0.0
2018-Apr-17 20:59N 37°58' E 023°33'0 0.0
2018-Apr-17 20:29N 37°57' E 023°33'0 0.0
2018-Apr-17 19:59N 37°58' E 023°33'0 0.0
2018-Apr-17 19:29N 37°58' E 023°33'0 0.0
2018-Apr-17 18:58N 37°58' E 023°33'0 0.0
2018-Apr-17 18:28N 37°58' E 023°33'0 0.0
2018-Apr-17 18:01N 37°58' E 023°33'0 0.0
2018-Apr-17 17:30N 37°58' E 023°33'0 0.0
2018-Apr-17 17:00N 37°58' E 023°33'0 0.0
2018-Apr-17 16:30N 37°58' E 023°33'0 0.0
2018-Apr-17 16:00N 37°58' E 023°33'0 0.0
2018-Apr-17 15:30N 37°58' E 023°33'0 0.0
2018-Apr-17 14:59N 37°58' E 023°33'0 0.0
2018-Apr-17 14:29N 37°58' E 023°33'0 0.0
2018-Apr-17 13:59N 37°58' E 023°33'0 0.0
2018-Apr-17 13:29N 37°58' E 023°33'0 0.0
2018-Apr-17 12:59N 37°58' E 023°33'0 0.0
2018-Apr-17 12:29N 37°57' E 023°33'0 0.0
2018-Apr-17 12:00N 37°58' E 023°33'0 0.0
2018-Apr-17 11:30N 37°58' E 023°33'0 0.0
2018-Apr-17 11:00N 37°58' E 023°33'0 0.0
2018-Apr-17 10:30N 37°58' E 023°33'0 0.0
2018-Apr-17 10:00N 37°58' E 023°33'0 0.0
2018-Apr-17 09:30N 37°58' E 023°33'0 0.1
2018-Apr-17 09:00N 37°57' E 023°33'0 0.1
2018-Apr-17 08:30N 37°58' E 023°33'0 0.0
2018-Apr-17 08:00N 37°58' E 023°33'0 0.0
2018-Apr-17 07:30N 37°58' E 023°33'0 0.0
2018-Apr-17 07:00N 37°58' E 023°33'0 0.0
2018-Apr-17 06:30N 37°58' E 023°33'0 0.0
2018-Apr-17 06:00N 37°58' E 023°33'0 0.0
2018-Apr-17 05:28N 37°58' E 023°33'0 0.0
2018-Apr-17 04:58N 37°58' E 023°33'0 0.0
2018-Apr-17 04:28N 37°58' E 023°33'0 0.0
2018-Apr-17 03:58N 37°57' E 023°33'0 0.0
2018-Apr-17 03:28N 37°58' E 023°33'0 0.0
2018-Apr-17 02:58N 37°58' E 023°33'0 0.0
2018-Apr-17 02:28N 37°58' E 023°33'0 0.0
2018-Apr-17 01:57N 37°58' E 023°33'0 0.0
2018-Apr-17 01:29N 37°58' E 023°33'0 0.0
2018-Apr-17 00:59N 37°58' E 023°33'0 0.0
2018-Apr-17 00:29N 37°58' E 023°33'0 0.0
2018-Apr-16 23:58N 37°58' E 023°33'0 0.0
2018-Apr-16 23:28N 37°58' E 023°33'0 0.0
2018-Apr-16 22:58N 37°58' E 023°33'0 0.0
2018-Apr-16 22:28N 37°58' E 023°33'0 0.0
2018-Apr-16 22:00N 37°58' E 023°33'0 0.0
2018-Apr-16 21:30N 37°58' E 023°33'0 0.0
2018-Apr-16 20:59N 37°58' E 023°33'0 0.0
2018-Apr-16 20:28N 37°57' E 023°33'0 0.0
2018-Apr-16 19:58N 37°58' E 023°33'0 0.0
2018-Apr-16 19:31N 37°58' E 023°33'0 0.0
2018-Apr-16 19:00N 37°58' E 023°33'0 0.0
2018-Apr-16 18:31N 37°58' E 023°33'0 0.0
2018-Apr-16 18:00N 37°57' E 023°33'0 0.1
2018-Apr-16 17:30N 37°58' E 023°33'0 0.0
2018-Apr-16 16:57N 37°58' E 023°33'0 0.0
2018-Apr-16 16:29N 37°57' E 023°33'0 0.0
2018-Apr-16 15:59N 37°57' E 023°33'0 0.1
2018-Apr-16 15:29N 37°58' E 023°33'0 0.0
2018-Apr-16 14:59N 37°58' E 023°33'0 0.0
2018-Apr-16 14:29N 37°58' E 023°33'0 0.0
2018-Apr-16 13:59N 37°58' E 023°33'0 0.0
2018-Apr-16 13:29N 37°58' E 023°33'0 0.0
2018-Apr-16 12:53N 37°58' E 023°33'0 0.0
2018-Apr-16 12:27N 37°58' E 023°33'0 0.0
2018-Apr-16 11:57N 37°58' E 023°33'0 0.0
2018-Apr-16 11:30N 37°58' E 023°33'0 0.0
2018-Apr-16 11:00N 37°58' E 023°33'0 0.0
2018-Apr-16 10:30N 37°58' E 023°33'0 0.0
2018-Apr-16 10:00N 37°58' E 023°33'0 0.0
2018-Apr-16 09:30N 37°58' E 023°33'0 0.0
2018-Apr-16 09:00N 37°58' E 023°33'0 0.0
2018-Apr-16 08:30N 37°58' E 023°33'0 0.0
2018-Apr-16 08:00N 37°58' E 023°33'0 0.0
2018-Apr-16 07:30N 37°57' E 023°33'0 0.0
2018-Apr-16 07:00N 37°58' E 023°33'0 0.0
2018-Apr-16 06:30N 37°58' E 023°33'0 0.0
2018-Apr-16 06:00N 37°58' E 023°33'0 0.0
2018-Apr-16 05:30N 37°58' E 023°33'0 0.0
2018-Apr-16 05:00N 37°58' E 023°33'0 0.0
2018-Apr-16 04:29N 37°57' E 023°33'0 0.0
2018-Apr-16 03:59N 37°58' E 023°33'0 0.0
2018-Apr-16 03:29N 37°58' E 023°33'0 0.0
2018-Apr-16 02:59N 37°58' E 023°33'0 0.0
2018-Apr-16 02:29N 37°58' E 023°33'0 0.0
2018-Apr-16 01:58N 37°58' E 023°33'0 0.0
2018-Apr-16 01:28N 37°58' E 023°33'0 0.0
2018-Apr-16 00:58N 37°58' E 023°33'0 0.0
2018-Apr-16 00:28N 37°58' E 023°33'0 0.0
2018-Apr-15 23:58N 37°58' E 023°33'0 0.0
2018-Apr-15 23:28N 37°58' E 023°33'0 0.0
2018-Apr-15 22:58N 37°58' E 023°33'0 0.0
2018-Apr-15 22:28N 37°58' E 023°33'0 0.0
2018-Apr-15 21:58N 37°58' E 023°33'0 0.0
2018-Apr-15 21:30N 37°58' E 023°33'0 0.0
2018-Apr-15 21:00N 37°58' E 023°33'0 0.0
2018-Apr-15 20:30N 37°58' E 023°33'0 0.0
2018-Apr-15 20:00N 37°58' E 023°33'0 0.0
2018-Apr-15 19:30N 37°58' E 023°33'0 0.0
2018-Apr-15 19:00N 37°58' E 023°33'0 0.0
2018-Apr-15 18:30N 37°58' E 023°33'0 0.0
2018-Apr-15 18:00N 37°58' E 023°33'0 0.0
2018-Apr-15 17:30N 37°58' E 023°33'0 0.0
2018-Apr-15 16:58N 37°58' E 023°33'0 0.0
2018-Apr-15 16:31N 37°58' E 023°33'0 0.0
2018-Apr-15 16:00N 37°58' E 023°33'0 0.0
2018-Apr-15 15:30N 37°58' E 023°33'0 0.0
2018-Apr-15 15:00N 37°58' E 023°33'0 0.0
2018-Apr-15 14:30N 37°58' E 023°33'0 0.0
2018-Apr-15 14:00N 37°58' E 023°33'0 0.0
2018-Apr-15 13:30N 37°58' E 023°33'0 0.0
2018-Apr-15 12:59N 37°58' E 023°33'0 0.0
2018-Apr-15 12:29N 37°58' E 023°33'0 0.0
2018-Apr-15 11:59N 37°58' E 023°33'0 0.0
2018-Apr-15 11:28N 37°57' E 023°33'0 0.0
2018-Apr-15 10:58N 37°58' E 023°33'0 0.0
2018-Apr-15 10:31N 37°58' E 023°33'0 0.0
2018-Apr-15 10:01N 37°58' E 023°33'0 0.0
2018-Apr-15 09:30N 37°58' E 023°33'0 0.0
2018-Apr-15 09:00N 37°58' E 023°33'0 0.0
2018-Apr-15 08:30N 37°58' E 023°33'0 0.0
2018-Apr-15 08:00N 37°58' E 023°33'0 0.0
2018-Apr-15 07:30N 37°57' E 023°33'0 0.0
2018-Apr-15 07:00N 37°58' E 023°33'0 0.0
2018-Apr-15 06:30N 37°58' E 023°33'0 0.1
2018-Apr-15 06:00N 37°58' E 023°33'0 0.0
2018-Apr-15 05:30N 37°58' E 023°33'0 0.0
2018-Apr-15 05:00N 37°58' E 023°33'0 0.0
2018-Apr-15 04:30N 37°58' E 023°33'0 0.0
2018-Apr-15 04:00N 37°58' E 023°33'0 0.0
2018-Apr-15 03:30N 37°58' E 023°33'0 0.0
2018-Apr-15 03:00N 37°58' E 023°33'0 0.0
2018-Apr-15 02:28N 37°58' E 023°33'0 0.0
2018-Apr-15 01:57N 37°58' E 023°33'0 0.0
2018-Apr-15 01:30N 37°58' E 023°33'0 0.0
2018-Apr-15 01:00N 37°58' E 023°33'0 0.1
2018-Apr-15 00:30N 37°58' E 023°33'0 0.1
2018-Apr-15 00:00N 37°58' E 023°33'0 0.0
2018-Apr-14 23:30N 37°58' E 023°33'0 0.0
2018-Apr-14 23:00N 37°58' E 023°33'0 0.0
2018-Apr-14 22:30N 37°58' E 023°33'0 0.0
2018-Apr-14 22:00N 37°58' E 023°33'0 0.0
2018-Apr-14 21:30N 37°58' E 023°33'0 0.0
2018-Apr-14 21:00N 37°58' E 023°33'0 0.0
2018-Apr-14 20:30N 37°58' E 023°33'0 0.0
2018-Apr-14 20:00N 37°58' E 023°33'0 0.0
2018-Apr-14 19:29N 37°58' E 023°33'0 0.0
2018-Apr-14 18:58N 37°58' E 023°33'0 0.0
2018-Apr-14 18:28N 37°58' E 023°33'0 0.1
2018-Apr-14 17:58N 37°57' E 023°33'0 0.1
2018-Apr-14 17:28N 37°58' E 023°33'0 0.0
2018-Apr-14 17:00N 37°58' E 023°33'0 0.0
2018-Apr-14 16:30N 37°58' E 023°33'0 0.0
2018-Apr-14 16:00N 37°58' E 023°33'0 0.0
2018-Apr-14 15:30N 37°58' E 023°33'0 0.0
2018-Apr-14 15:00N 37°58' E 023°33'0 0.0
2018-Apr-14 14:30N 37°58' E 023°33'0 0.0
2018-Apr-14 14:00N 37°58' E 023°33'0 0.0
2018-Apr-14 13:29N 37°58' E 023°33'0 0.0
2018-Apr-14 12:59N 37°58' E 023°33'0 0.0
2018-Apr-14 12:29N 37°58' E 023°33'0 0.0
2018-Apr-14 11:59N 37°58' E 023°33'0 0.0
2018-Apr-14 11:29N 37°58' E 023°33'0 0.0
2018-Apr-14 10:59N 37°58' E 023°33'0 0.0
2018-Apr-14 10:29N 37°58' E 023°33'0 0.0
2018-Apr-14 09:59N 37°58' E 023°33'0 0.0
2018-Apr-14 09:29N 37°57' E 023°33'0 0.0
2018-Apr-14 08:59N 37°58' E 023°33'0 0.0
2018-Apr-14 08:29N 37°58' E 023°33'0 0.0
2018-Apr-14 07:58N 37°58' E 023°33'0 0.0
2018-Apr-14 07:28N 37°58' E 023°33'0 0.0
2018-Apr-14 07:00N 37°58' E 023°33'0 0.0
2018-Apr-14 06:30N 37°58' E 023°33'0 0.0
2018-Apr-14 06:00N 37°58' E 023°33'0 0.0
2018-Apr-14 05:30N 37°58' E 023°33'0 0.0
2018-Apr-14 05:00N 37°58' E 023°33'0 0.0
2018-Apr-14 04:30N 37°58' E 023°33'0 0.0
2018-Apr-14 04:00N 37°57' E 023°33'0 0.0
2018-Apr-14 03:29N 37°58' E 023°33'0 0.0
2018-Apr-14 02:59N 37°58' E 023°33'0 0.0
2018-Apr-14 02:29N 37°58' E 023°33'0 0.0
2018-Apr-14 01:59N 37°58' E 023°33'0 0.0
2018-Apr-14 01:29N 37°58' E 023°33'0 0.0
2018-Apr-14 00:59N 37°58' E 023°33'0 0.0
2018-Apr-14 00:30N 37°58' E 023°33'0 0.0
2018-Apr-14 00:00N 37°58' E 023°33'0 0.0
2018-Apr-13 23:30N 37°58' E 023°33'0 0.0
2018-Apr-13 22:59N 37°58' E 023°33'0 0.0
2018-Apr-13 22:29N 37°58' E 023°33'0 0.0
2018-Apr-13 21:59N 37°58' E 023°33'0 0.0
2018-Apr-13 21:29N 37°58' E 023°33'0 0.0
2018-Apr-13 20:59N 37°58' E 023°33'0 0.0
2018-Apr-13 20:28N 37°58' E 023°33'0 0.0
2018-Apr-13 19:59N 37°58' E 023°33'0 0.0
2018-Apr-13 19:29N 37°58' E 023°33'0 0.0
2018-Apr-13 18:59N 37°58' E 023°33'0 0.0
2018-Apr-13 18:29N 37°58' E 023°33'0 0.1
2018-Apr-13 17:59N 37°57' E 023°33'0 0.1
2018-Apr-13 17:29N 37°58' E 023°33'0 0.0
2018-Apr-13 16:59N 37°58' E 023°33'0 0.0
2018-Apr-13 16:29N 37°58' E 023°33'0 0.0
2018-Apr-13 15:59N 37°58' E 023°33'0 0.0
2018-Apr-13 15:29N 37°58' E 023°33'0 0.0
2018-Apr-13 14:59N 37°58' E 023°33'0 0.0
2018-Apr-13 14:29N 37°58' E 023°33'0 0.0
2018-Apr-13 13:59N 37°58' E 023°33'0 0.0
2018-Apr-13 13:29N 37°58' E 023°33'0 0.0
2018-Apr-13 12:59N 37°58' E 023°33'0 0.0
2018-Apr-13 12:28N 37°58' E 023°33'0 0.0
2018-Apr-13 11:58N 37°58' E 023°33'0 0.0
2018-Apr-13 11:28N 37°57' E 023°33'0 0.0
2018-Apr-13 10:58N 37°58' E 023°33'0 0.0
2018-Apr-13 10:28N 37°58' E 023°33'0 0.0
2018-Apr-13 09:58N 37°58' E 023°33'0 0.0
2018-Apr-13 09:28N 37°58' E 023°33'0 0.0
2018-Apr-13 08:58N 37°58' E 023°33'0 0.0
2018-Apr-13 08:30N 37°58' E 023°33'0 0.0
2018-Apr-13 08:00N 37°58' E 023°33'0 0.0
2018-Apr-13 07:30N 37°58' E 023°33'0 0.0
2018-Apr-13 07:00N 37°58' E 023°33'0 0.0
2018-Apr-13 06:29N 37°58' E 023°33'0 0.0
2018-Apr-13 06:00N 37°58' E 023°33'0 0.0
2018-Apr-13 05:30N 37°57' E 023°33'0 0.0
2018-Apr-13 05:00N 37°58' E 023°33'0 0.0
2018-Apr-13 04:30N 37°58' E 023°33'0 0.0
2018-Apr-13 04:00N 37°58' E 023°33'0 0.0
2018-Apr-13 03:29N 37°58' E 023°33'0 0.0
2018-Apr-13 02:58N 37°58' E 023°33'0 0.0
2018-Apr-13 02:30N 37°58' E 023°33'0 0.0
2018-Apr-13 01:59N 37°58' E 023°33'0 0.0
2018-Apr-13 01:29N 37°58' E 023°33'0 0.0
2018-Apr-13 00:59N 37°58' E 023°33'0 0.0
2018-Apr-13 00:29N 37°58' E 023°33'0 0.0
2018-Apr-12 23:59N 37°58' E 023°33'0 0.0
2018-Apr-12 23:29N 37°58' E 023°33'0 0.0
2018-Apr-12 22:58N 37°58' E 023°33'0 0.0
2018-Apr-12 22:31N 37°58' E 023°33'0 0.0
2018-Apr-12 22:00N 37°58' E 023°33'0 0.0
2018-Apr-12 21:29N 37°58' E 023°33'0 0.0
2018-Apr-12 20:59N 37°58' E 023°33'0 0.0
2018-Apr-12 20:28N 37°58' E 023°33'0 0.0
2018-Apr-12 19:55N 37°58' E 023°33'0 0.0
2018-Apr-12 19:28N 37°58' E 023°33'0 0.0
2018-Apr-12 18:58N 37°58' E 023°33'0 0.0
2018-Apr-12 18:28N 37°58' E 023°33'0 0.0
2018-Apr-12 17:58N 37°57' E 023°33'0 0.0
2018-Apr-12 17:28N 37°58' E 023°33'0 0.0
2018-Apr-12 16:58N 37°58' E 023°33'0 0.2
2018-Apr-12 16:30N 37°57' E 023°33'0 0.5
2018-Apr-12 16:00N 37°57' E 023°33'2 3.6
2018-Apr-12 15:28N 37°57' E 023°36'0 0.2
2018-Apr-12 14:58N 37°57' E 023°36'0 0.0
2018-Apr-12 14:28N 37°57' E 023°36'0 0.0
2018-Apr-12 13:58N 37°57' E 023°36'0 0.0
2018-Apr-12 13:28N 37°57' E 023°36'0 0.0
2018-Apr-12 12:58N 37°57' E 023°36'0 0.0
2018-Apr-12 12:28N 37°57' E 023°36'0 0.0
2018-Apr-12 11:59N 37°57' E 023°36'0 0.0
2018-Apr-12 11:28N 37°57' E 023°36'0 0.0
2018-Apr-12 10:58N 37°57' E 023°36'0 0.0
2018-Apr-12 10:28N 37°57' E 023°36'0 0.0
2018-Apr-12 09:59N 37°57' E 023°36'0 0.0
2018-Apr-12 09:30N 37°57' E 023°36'0 0.0
2018-Apr-12 09:00N 37°57' E 023°36'0 0.0
2018-Apr-12 08:30N 37°57' E 023°36'0 0.0
2018-Apr-12 07:59N 37°57' E 023°36'  
Track history (hours):
 
Tides and Currents Weather Stations Pressure Air Temp Water Temp Dewpoint Dewpoint Depression Visibility Wind Speed Wind Dir Waves Ship Positions

Ubc Bremen

Last reported at 2018-Apr-22 07:57 UTC. Time now 2018-Apr-24 04:58 UTC.
Position N 37°05' E 023°55'.

Length 154 m; draft 8.8 m.

Type: Cargo ship. MMSI: 21260200.

Date/timePositionNaut miles runAvg speedWind from/ knotsBaromVisibWave heightAir tempDewpointWater temp
2018-Apr-22 07:57N 37°05' E 023°55'510.7
2018-Apr-22 07:28N 37°10' E 023°51'1 2.0
2018-Apr-22 06:58N 37°11' E 023°51'1 1.3
2018-Apr-22 06:30N 37°12' E 023°52'1 1.3
2018-Apr-22 05:59N 37°12' E 023°52'1 1.4
2018-Apr-22 05:30N 37°13' E 023°52'5 1.2
2018-Apr-22 01:18N 37°17' E 023°55'1 2.5
2018-Apr-22 00:55N 37°18' E 023°56'7 0.6
2018-Apr-21 12:23N 37°20' E 023°47'11 3.1
2018-Apr-21 08:51N 37°31' E 023°44'3 7.4
2018-Apr-21 08:30N 37°34' E 023°45'612.9
2018-Apr-21 08:00N 37°40' E 023°42'612.9
2018-Apr-21 07:30N 37°45' E 023°39'612.2
2018-Apr-21 07:00N 37°51' E 023°36'2 4.2
2018-Apr-21 06:30N 37°53' E 023°35'2 2.9
2018-Apr-21 06:00N 37°53' E 023°33'0 0.8
2018-Apr-21 05:30N 37°54' E 023°32'0 0.3
2018-Apr-21 05:00N 37°54' E 023°32'0 0.1
2018-Apr-21 04:29N 37°54' E 023°32'0 0.0
2018-Apr-21 03:59N 37°54' E 023°32'0 0.0
2018-Apr-21 03:29N 37°54' E 023°32'0 0.1
2018-Apr-21 02:59N 37°54' E 023°32'0 0.1
2018-Apr-21 02:29N 37°54' E 023°32'0 0.0
2018-Apr-21 01:59N 37°54' E 023°32'0 0.0
2018-Apr-21 01:29N 37°54' E 023°32'0 0.0
2018-Apr-21 00:58N 37°54' E 023°32'0 0.0
2018-Apr-21 00:28N 37°54' E 023°32'0 0.2
2018-Apr-20 23:58N 37°54' E 023°32'0 0.0
2018-Apr-20 23:28N 37°54' E 023°32'0 0.0
2018-Apr-20 22:58N 37°54' E 023°32'0 0.2
2018-Apr-20 22:28N 37°54' E 023°32'0 0.0
2018-Apr-20 22:00N 37°54' E 023°32'0 0.0
2018-Apr-20 21:30N 37°54' E 023°32'0 0.0
2018-Apr-20 21:00N 37°54' E 023°32'0 0.1
2018-Apr-20 20:29N 37°54' E 023°32'0 0.1
2018-Apr-20 19:59N 37°54' E 023°32'0 0.1
2018-Apr-20 19:29N 37°54' E 023°32'0 0.1
2018-Apr-20 18:59N 37°54' E 023°32'0 0.1
2018-Apr-20 18:29N 37°54' E 023°32'0 0.1
2018-Apr-20 17:59N 37°54' E 023°32'0 0.1
2018-Apr-20 17:29N 37°54' E 023°32'0 0.0
2018-Apr-20 16:59N 37°54' E 023°32'0 0.1
2018-Apr-20 16:29N 37°54' E 023°32'0 0.1
2018-Apr-20 15:58N 37°54' E 023°32'0 0.2
2018-Apr-20 15:28N 37°54' E 023°32'0 0.1
2018-Apr-20 14:58N 37°54' E 023°32'0 0.1
2018-Apr-20 14:28N 37°54' E 023°32'0 0.2
2018-Apr-20 14:00N 37°54' E 023°32'0 0.1
2018-Apr-20 13:30N 37°54' E 023°33'0 0.0
2018-Apr-20 13:00N 37°54' E 023°33'0 0.1
2018-Apr-20 12:29N 37°54' E 023°33'0 0.1
2018-Apr-20 11:59N 37°54' E 023°32'0 0.1
2018-Apr-20 11:29N 37°54' E 023°32'0 0.4
2018-Apr-20 10:58N 37°54' E 023°33'0 0.1
2018-Apr-20 10:30N 37°54' E 023°33'0 0.1
2018-Apr-20 09:50N 37°54' E 023°33'0 0.3
2018-Apr-20 09:29N 37°54' E 023°32'0 0.2
2018-Apr-20 08:59N 37°54' E 023°33'0 0.3
2018-Apr-20 08:29N 37°54' E 023°33'2 3.9
2018-Apr-20 08:00N 37°54' E 023°35'3 5.0
2018-Apr-20 07:30N 37°57' E 023°36'2 4.2
2018-Apr-20 07:00N 37°57' E 023°33'0 0.1
2018-Apr-20 06:30N 37°58' E 023°33'0 0.0
2018-Apr-20 06:00N 37°58' E 023°33'0 0.0
2018-Apr-20 05:29N 37°58' E 023°33'0 0.0
2018-Apr-20 04:59N 37°58' E 023°33'0 0.0
2018-Apr-20 04:29N 37°57' E 023°33'0 0.0
2018-Apr-20 03:59N 37°58' E 023°33'0 0.0
2018-Apr-20 03:29N 37°58' E 023°33'0 0.0
2018-Apr-20 02:59N 37°58' E 023°33'0 0.0
2018-Apr-20 02:29N 37°58' E 023°33'0 0.0
2018-Apr-20 02:00N 37°58' E 023°33'0 0.0
2018-Apr-20 01:28N 37°58' E 023°33'0 0.0
2018-Apr-20 00:58N 37°58' E 023°33'0 0.0
2018-Apr-20 00:28N 37°58' E 023°33'0 0.0
2018-Apr-19 23:57N 37°58' E 023°33'0 0.1
2018-Apr-19 23:30N 37°58' E 023°33'0 0.0
2018-Apr-19 22:55N 37°58' E 023°33'0 0.0
2018-Apr-19 22:28N 37°58' E 023°33'0 0.0
2018-Apr-19 21:58N 37°58' E 023°33'0 0.0
2018-Apr-19 21:28N 37°58' E 023°33'0 0.0
2018-Apr-19 20:58N 37°58' E 023°33'0 0.0
2018-Apr-19 20:29N 37°58' E 023°33'0 0.0
2018-Apr-19 19:58N 37°58' E 023°33'0 0.0
2018-Apr-19 19:28N 37°58' E 023°33'0 0.0
2018-Apr-19 18:58N 37°58' E 023°33'0 0.0
2018-Apr-19 18:28N 37°58' E 023°33'0 0.0
2018-Apr-19 17:58N 37°58' E 023°33'0 0.0
2018-Apr-19 17:25N 37°57' E 023°33'0 0.0
2018-Apr-19 17:00N 37°58' E 023°33'0 0.0
2018-Apr-19 16:30N 37°58' E 023°33'0 0.0
2018-Apr-19 16:00N 37°57' E 023°33'0 0.0
2018-Apr-19 15:30N 37°58' E 023°33'0 0.0
2018-Apr-19 15:00N 37°58' E 023°33'0 0.0
2018-Apr-19 14:30N 37°58' E 023°33'0 0.0
2018-Apr-19 14:00N 37°58' E 023°33'0 0.0
2018-Apr-19 13:27N 37°58' E 023°33'0 0.0
2018-Apr-19 13:00N 37°58' E 023°33'0 0.0
2018-Apr-19 12:30N 37°58' E 023°33'0 0.0
2018-Apr-19 12:00N 37°58' E 023°33'0 0.0
2018-Apr-19 11:30N 37°58' E 023°33'0 0.0
2018-Apr-19 11:00N 37°58' E 023°33'0 0.0
2018-Apr-19 10:29N 37°58' E 023°33'0 0.0
2018-Apr-19 09:58N 37°58' E 023°33'0 0.0
2018-Apr-19 09:28N 37°58' E 023°33'0 0.1
2018-Apr-19 08:58N 37°57' E 023°33'0 0.1
2018-Apr-19 08:28N 37°58' E 023°33'0 0.0
2018-Apr-19 07:58N 37°58' E 023°33'0 0.0
2018-Apr-19 07:28N 37°57' E 023°33'0 0.0
2018-Apr-19 06:58N 37°58' E 023°33'0 0.0
2018-Apr-19 06:30N 37°58' E 023°33'0 0.0
2018-Apr-19 06:00N 37°58' E 023°33'0 0.0
2018-Apr-19 05:30N 37°58' E 023°33'0 0.0
2018-Apr-19 05:00N 37°58' E 023°33'0 0.0
2018-Apr-19 04:30N 37°58' E 023°33'0 0.0
2018-Apr-19 03:58N 37°58' E 023°33'0 0.0
2018-Apr-19 03:28N 37°58' E 023°33'0 0.0
2018-Apr-19 02:58N 37°58' E 023°33'0 0.0
2018-Apr-19 02:28N 37°58' E 023°33'0 0.0
2018-Apr-19 01:58N 37°58' E 023°33'0 0.0
2018-Apr-19 01:28N 37°58' E 023°33'0 0.0
2018-Apr-19 00:58N 37°58' E 023°33'0 0.0
2018-Apr-19 00:28N 37°58' E 023°33'0 0.0
2018-Apr-18 23:58N 37°58' E 023°33'0 0.1
2018-Apr-18 23:28N 37°58' E 023°33'0 0.0
2018-Apr-18 23:00N 37°58' E 023°33'0 0.0
2018-Apr-18 22:30N 37°58' E 023°33'0 0.0
2018-Apr-18 22:00N 37°58' E 023°33'0 0.0
2018-Apr-18 21:29N 37°58' E 023°33'0 0.0
2018-Apr-18 20:59N 37°58' E 023°33'0 0.0
2018-Apr-18 20:29N 37°57' E 023°33'0 0.0
2018-Apr-18 19:59N 37°58' E 023°33'0 0.0
2018-Apr-18 19:29N 37°58' E 023°33'0 0.0
2018-Apr-18 18:59N 37°58' E 023°33'0 0.0
2018-Apr-18 18:29N 37°58' E 023°33'0 0.0
2018-Apr-18 17:59N 37°58' E 023°33'0 0.0
2018-Apr-18 17:29N 37°57' E 023°33'0 0.1
2018-Apr-18 16:59N 37°58' E 023°33'0 0.0
2018-Apr-18 16:29N 37°58' E 023°33'0 0.0
2018-Apr-18 15:59N 37°58' E 023°33'0 0.0
2018-Apr-18 15:29N 37°58' E 023°33'0 0.0
2018-Apr-18 14:59N 37°58' E 023°33'0 0.0
2018-Apr-18 14:29N 37°58' E 023°33'0 0.0
2018-Apr-18 13:58N 37°58' E 023°33'0 0.0
2018-Apr-18 13:28N 37°58' E 023°33'0 0.0
2018-Apr-18 12:58N 37°58' E 023°33'0 0.0
2018-Apr-18 12:28N 37°58' E 023°33'0 0.0
2018-Apr-18 11:58N 37°57' E 023°33'0 0.0
2018-Apr-18 11:31N 37°58' E 023°33'0 0.0
2018-Apr-18 10:57N 37°58' E 023°33'0 0.0
2018-Apr-18 10:30N 37°58' E 023°33'0 0.0
2018-Apr-18 10:00N 37°58' E 023°33'0 0.0
2018-Apr-18 09:30N 37°57' E 023°33'0 0.0
2018-Apr-18 09:00N 37°57' E 023°33'0 0.1
2018-Apr-18 08:30N 37°58' E 023°33'0 0.0
2018-Apr-18 07:58N 37°58' E 023°33'0 0.0
2018-Apr-18 07:28N 37°57' E 023°33'0 0.0
2018-Apr-18 06:59N 37°57' E 023°33'0 0.0
2018-Apr-18 06:29N 37°57' E 023°33'0 0.0
2018-Apr-18 05:56N 37°58' E 023°33'0 0.0
2018-Apr-18 05:29N 37°58' E 023°33'0 0.0
2018-Apr-18 04:59N 37°58' E 023°33'0 0.0
2018-Apr-18 04:29N 37°58' E 023°33'0 0.0
2018-Apr-18 03:56N 37°58' E 023°33'0 0.0
2018-Apr-18 03:29N 37°58' E 023°33'0 0.0
2018-Apr-18 02:59N 37°58' E 023°33'0 0.0
2018-Apr-18 02:29N 37°58' E 023°33'0 0.0
2018-Apr-18 01:58N 37°58' E 023°33'0 0.0
2018-Apr-18 01:30N 37°58' E 023°33'0 0.0
2018-Apr-18 00:59N 37°58' E 023°33'0 0.1
2018-Apr-18 00:29N 37°58' E 023°33'0 0.0
2018-Apr-17 23:59N 37°58' E 023°33'0 0.1
2018-Apr-17 23:29N 37°58' E 023°33'0 0.0
2018-Apr-17 22:59N 37°58' E 023°33'0 0.0
2018-Apr-17 22:29N 37°58' E 023°33'0 0.0
2018-Apr-17 21:59N 37°58' E 023°33'0 0.0
2018-Apr-17 21:29N 37°58' E 023°33'0 0.0
2018-Apr-17 20:59N 37°58' E 023°33'0 0.0
2018-Apr-17 20:29N 37°57' E 023°33'0 0.0
2018-Apr-17 19:59N 37°58' E 023°33'0 0.0
2018-Apr-17 19:29N 37°58' E 023°33'0 0.0
2018-Apr-17 18:58N 37°58' E 023°33'0 0.0
2018-Apr-17 18:28N 37°58' E 023°33'0 0.0
2018-Apr-17 18:01N 37°58' E 023°33'0 0.0
2018-Apr-17 17:30N 37°58' E 023°33'0 0.0
2018-Apr-17 17:00N 37°58' E 023°33'0 0.0
2018-Apr-17 16:30N 37°58' E 023°33'0 0.0
2018-Apr-17 16:00N 37°58' E 023°33'0 0.0
2018-Apr-17 15:30N 37°58' E 023°33'0 0.0
2018-Apr-17 14:59N 37°58' E 023°33'0 0.0
2018-Apr-17 14:29N 37°58' E 023°33'0 0.0
2018-Apr-17 13:59N 37°58' E 023°33'0 0.0
2018-Apr-17 13:29N 37°58' E 023°33'0 0.0
2018-Apr-17 12:59N 37°58' E 023°33'0 0.0
2018-Apr-17 12:29N 37°57' E 023°33'0 0.0
2018-Apr-17 12:00N 37°58' E 023°33'0 0.0
2018-Apr-17 11:30N 37°58' E 023°33'0 0.0
2018-Apr-17 11:00N 37°58' E 023°33'0 0.0
2018-Apr-17 10:30N 37°58' E 023°33'0 0.0
2018-Apr-17 10:00N 37°58' E 023°33'0 0.0
2018-Apr-17 09:30N 37°58' E 023°33'0 0.1
2018-Apr-17 09:00N 37°57' E 023°33'0 0.1
2018-Apr-17 08:30N 37°58' E 023°33'0 0.0
2018-Apr-17 08:00N 37°58' E 023°33'0 0.0
2018-Apr-17 07:30N 37°58' E 023°33'0 0.0
2018-Apr-17 07:00N 37°58' E 023°33'0 0.0
2018-Apr-17 06:30N 37°58' E 023°33'0 0.0
2018-Apr-17 06:00N 37°58' E 023°33'0 0.0
2018-Apr-17 05:28N 37°58' E 023°33'0 0.0
2018-Apr-17 04:58N 37°58' E 023°33'0 0.0
2018-Apr-17 04:28N 37°58' E 023°33'0 0.0
2018-Apr-17 03:58N 37°57' E 023°33'0 0.0
2018-Apr-17 03:28N 37°58' E 023°33'0 0.0
2018-Apr-17 02:58N 37°58' E 023°33'0 0.0
2018-Apr-17 02:28N 37°58' E 023°33'0 0.0
2018-Apr-17 01:57N 37°58' E 023°33'0 0.0
2018-Apr-17 01:29N 37°58' E 023°33'0 0.0
2018-Apr-17 00:59N 37°58' E 023°33'0 0.0
2018-Apr-17 00:29N 37°58' E 023°33'0 0.0
2018-Apr-16 23:58N 37°58' E 023°33'0 0.0
2018-Apr-16 23:28N 37°58' E 023°33'0 0.0
2018-Apr-16 22:58N 37°58' E 023°33'0 0.0
2018-Apr-16 22:28N 37°58' E 023°33'0 0.0
2018-Apr-16 22:00N 37°58' E 023°33'0 0.0
2018-Apr-16 21:30N 37°58' E 023°33'0 0.0
2018-Apr-16 20:59N 37°58' E 023°33'0 0.0
2018-Apr-16 20:28N 37°57' E 023°33'0 0.0
2018-Apr-16 19:58N 37°58' E 023°33'0 0.0
2018-Apr-16 19:31N 37°58' E 023°33'0 0.0
2018-Apr-16 19:00N 37°58' E 023°33'0 0.0
2018-Apr-16 18:31N 37°58' E 023°33'0 0.0
2018-Apr-16 18:00N 37°57' E 023°33'0 0.1
2018-Apr-16 17:30N 37°58' E 023°33'0 0.0
2018-Apr-16 16:57N 37°58' E 023°33'0 0.0
2018-Apr-16 16:29N 37°57' E 023°33'0 0.0
2018-Apr-16 15:59N 37°57' E 023°33'0 0.1
2018-Apr-16 15:29N 37°58' E 023°33'0 0.0
2018-Apr-16 14:59N 37°58' E 023°33'0 0.0
2018-Apr-16 14:29N 37°58' E 023°33'0 0.0
2018-Apr-16 13:59N 37°58' E 023°33'0 0.0
2018-Apr-16 13:29N 37°58' E 023°33'0 0.0
2018-Apr-16 12:53N 37°58' E 023°33'0 0.0
2018-Apr-16 12:27N 37°58' E 023°33'0 0.0
2018-Apr-16 11:57N 37°58' E 023°33'0 0.0
2018-Apr-16 11:30N 37°58' E 023°33'0 0.0
2018-Apr-16 11:00N 37°58' E 023°33'0 0.0
2018-Apr-16 10:30N 37°58' E 023°33'0 0.0
2018-Apr-16 10:00N 37°58' E 023°33'0 0.0
2018-Apr-16 09:30N 37°58' E 023°33'0 0.0
2018-Apr-16 09:00N 37°58' E 023°33'0 0.0
2018-Apr-16 08:30N 37°58' E 023°33'0 0.0
2018-Apr-16 08:00N 37°58' E 023°33'0 0.0
2018-Apr-16 07:30N 37°57' E 023°33'0 0.0
2018-Apr-16 07:00N 37°58' E 023°33'0 0.0
2018-Apr-16 06:30N 37°58' E 023°33'0 0.0
2018-Apr-16 06:00N 37°58' E 023°33'0 0.0
2018-Apr-16 05:30N 37°58' E 023°33'0 0.0
2018-Apr-16 05:00N 37°58' E 023°33'0 0.0
2018-Apr-16 04:29N 37°57' E 023°33'0 0.0
2018-Apr-16 03:59N 37°58' E 023°33'0 0.0
2018-Apr-16 03:29N 37°58' E 023°33'0 0.0
2018-Apr-16 02:59N 37°58' E 023°33'0 0.0
2018-Apr-16 02:29N 37°58' E 023°33'0 0.0
2018-Apr-16 01:58N 37°58' E 023°33'0 0.0
2018-Apr-16 01:28N 37°58' E 023°33'0 0.0
2018-Apr-16 00:58N 37°58' E 023°33'0 0.0
2018-Apr-16 00:28N 37°58' E 023°33'0 0.0
2018-Apr-15 23:58N 37°58' E 023°33'0 0.0
2018-Apr-15 23:28N 37°58' E 023°33'0 0.0
2018-Apr-15 22:58N 37°58' E 023°33'0 0.0
2018-Apr-15 22:28N 37°58' E 023°33'0 0.0
2018-Apr-15 21:58N 37°58' E 023°33'0 0.0
2018-Apr-15 21:30N 37°58' E 023°33'0 0.0
2018-Apr-15 21:00N 37°58' E 023°33'0 0.0
2018-Apr-15 20:30N 37°58' E 023°33'0 0.0
2018-Apr-15 20:00N 37°58' E 023°33'0 0.0
2018-Apr-15 19:30N 37°58' E 023°33'0 0.0
2018-Apr-15 19:00N 37°58' E 023°33'0 0.0
2018-Apr-15 18:30N 37°58' E 023°33'0 0.0
2018-Apr-15 18:00N 37°58' E 023°33'0 0.0
2018-Apr-15 17:30N 37°58' E 023°33'0 0.0
2018-Apr-15 16:58N 37°58' E 023°33'0 0.0
2018-Apr-15 16:31N 37°58' E 023°33'0 0.0
2018-Apr-15 16:00N 37°58' E 023°33'0 0.0
2018-Apr-15 15:30N 37°58' E 023°33'0 0.0
2018-Apr-15 15:00N 37°58' E 023°33'0 0.0
2018-Apr-15 14:30N 37°58' E 023°33'0 0.0
2018-Apr-15 14:00N 37°58' E 023°33'0 0.0
2018-Apr-15 13:30N 37°58' E 023°33'0 0.0
2018-Apr-15 12:59N 37°58' E 023°33'0 0.0
2018-Apr-15 12:29N 37°58' E 023°33'0 0.0
2018-Apr-15 11:59N 37°58' E 023°33'0 0.0
2018-Apr-15 11:28N 37°57' E 023°33'0 0.0
2018-Apr-15 10:58N 37°58' E 023°33'0 0.0
2018-Apr-15 10:31N 37°58' E 023°33'0 0.0
2018-Apr-15 10:01N 37°58' E 023°33'0 0.0
2018-Apr-15 09:30N 37°58' E 023°33'0 0.0
2018-Apr-15 09:00N 37°58' E 023°33'0 0.0
2018-Apr-15 08:30N 37°58' E 023°33'0 0.0
2018-Apr-15 08:00N 37°58' E 023°33'0 0.0
2018-Apr-15 07:30N 37°57' E 023°33'0 0.0
2018-Apr-15 07:00N 37°58' E 023°33'0 0.0
2018-Apr-15 06:30N 37°58' E 023°33'0 0.1
2018-Apr-15 06:00N 37°58' E 023°33'0 0.0
2018-Apr-15 05:30N 37°58' E 023°33'0 0.0
2018-Apr-15 05:00N 37°58' E 023°33'0 0.0
2018-Apr-15 04:30N 37°58' E 023°33'0 0.0
2018-Apr-15 04:00N 37°58' E 023°33'0 0.0
2018-Apr-15 03:30N 37°58' E 023°33'0 0.0
2018-Apr-15 03:00N 37°58' E 023°33'0 0.0
2018-Apr-15 02:28N 37°58' E 023°33'0 0.0
2018-Apr-15 01:57N 37°58' E 023°33'0 0.0
2018-Apr-15 01:30N 37°58' E 023°33'0 0.0
2018-Apr-15 01:00N 37°58' E 023°33'0 0.1
2018-Apr-15 00:30N 37°58' E 023°33'0 0.1
2018-Apr-15 00:00N 37°58' E 023°33'0 0.0
2018-Apr-14 23:30N 37°58' E 023°33'0 0.0
2018-Apr-14 23:00N 37°58' E 023°33'0 0.0
2018-Apr-14 22:30N 37°58' E 023°33'0 0.0
2018-Apr-14 22:00N 37°58' E 023°33'0 0.0
2018-Apr-14 21:30N 37°58' E 023°33'0 0.0
2018-Apr-14 21:00N 37°58' E 023°33'0 0.0
2018-Apr-14 20:30N 37°58' E 023°33'0 0.0
2018-Apr-14 20:00N 37°58' E 023°33'0 0.0
2018-Apr-14 19:29N 37°58' E 023°33'0 0.0
2018-Apr-14 18:58N 37°58' E 023°33'0 0.0
2018-Apr-14 18:28N 37°58' E 023°33'0 0.1
2018-Apr-14 17:58N 37°57' E 023°33'0 0.1
2018-Apr-14 17:28N 37°58' E 023°33'0 0.0
2018-Apr-14 17:00N 37°58' E 023°33'0 0.0
2018-Apr-14 16:30N 37°58' E 023°33'0 0.0
2018-Apr-14 16:00N 37°58' E 023°33'0 0.0
2018-Apr-14 15:30N 37°58' E 023°33'0 0.0
2018-Apr-14 15:00N 37°58' E 023°33'0 0.0
2018-Apr-14 14:30N 37°58' E 023°33'0 0.0
2018-Apr-14 14:00N 37°58' E 023°33'0 0.0
2018-Apr-14 13:29N 37°58' E 023°33'0 0.0
2018-Apr-14 12:59N 37°58' E 023°33'0 0.0
2018-Apr-14 12:29N 37°58' E 023°33'0 0.0
2018-Apr-14 11:59N 37°58' E 023°33'0 0.0
2018-Apr-14 11:29N 37°58' E 023°33'0 0.0
2018-Apr-14 10:59N 37°58' E 023°33'0 0.0
2018-Apr-14 10:29N 37°58' E 023°33'0 0.0
2018-Apr-14 09:59N 37°58' E 023°33'0 0.0
2018-Apr-14 09:29N 37°57' E 023°33'0 0.0
2018-Apr-14 08:59N 37°58' E 023°33'0 0.0
2018-Apr-14 08:29N 37°58' E 023°33'0 0.0
2018-Apr-14 07:58N 37°58' E 023°33'0 0.0
2018-Apr-14 07:28N 37°58' E 023°33'0 0.0
2018-Apr-14 07:00N 37°58' E 023°33'0 0.0
2018-Apr-14 06:30N 37°58' E 023°33'0 0.0
2018-Apr-14 06:00N 37°58' E 023°33'0 0.0
2018-Apr-14 05:30N 37°58' E 023°33'0 0.0
2018-Apr-14 05:00N 37°58' E 023°33'0 0.0
2018-Apr-14 04:30N 37°58' E 023°33'0 0.0
2018-Apr-14 04:00N 37°57' E 023°33'0 0.0
2018-Apr-14 03:29N 37°58' E 023°33'0 0.0
2018-Apr-14 02:59N 37°58' E 023°33'0 0.0
2018-Apr-14 02:29N 37°58' E 023°33'0 0.0
2018-Apr-14 01:59N 37°58' E 023°33'0 0.0
2018-Apr-14 01:29N 37°58' E 023°33'0 0.0
2018-Apr-14 00:59N 37°58' E 023°33'0 0.0
2018-Apr-14 00:30N 37°58' E 023°33'0 0.0
2018-Apr-14 00:00N 37°58' E 023°33'0 0.0
2018-Apr-13 23:30N 37°58' E 023°33'0 0.0
2018-Apr-13 22:59N 37°58' E 023°33'0 0.0
2018-Apr-13 22:29N 37°58' E 023°33'0 0.0
2018-Apr-13 21:59N 37°58' E 023°33'0 0.0
2018-Apr-13 21:29N 37°58' E 023°33'0 0.0
2018-Apr-13 20:59N 37°58' E 023°33'0 0.0
2018-Apr-13 20:28N 37°58' E 023°33'0 0.0
2018-Apr-13 19:59N 37°58' E 023°33'0 0.0
2018-Apr-13 19:29N 37°58' E 023°33'0 0.0
2018-Apr-13 18:59N 37°58' E 023°33'0 0.0
2018-Apr-13 18:29N 37°58' E 023°33'0 0.1
2018-Apr-13 17:59N 37°57' E 023°33'0 0.1
2018-Apr-13 17:29N 37°58' E 023°33'0 0.0
2018-Apr-13 16:59N 37°58' E 023°33'0 0.0
2018-Apr-13 16:29N 37°58' E 023°33'0 0.0
2018-Apr-13 15:59N 37°58' E 023°33'0 0.0
2018-Apr-13 15:29N 37°58' E 023°33'0 0.0
2018-Apr-13 14:59N 37°58' E 023°33'0 0.0
2018-Apr-13 14:29N 37°58' E 023°33'0 0.0
2018-Apr-13 13:59N 37°58' E 023°33'0 0.0
2018-Apr-13 13:29N 37°58' E 023°33'0 0.0
2018-Apr-13 12:59N 37°58' E 023°33'0 0.0
2018-Apr-13 12:28N 37°58' E 023°33'0 0.0
2018-Apr-13 11:58N 37°58' E 023°33'0 0.0
2018-Apr-13 11:28N 37°57' E 023°33'0 0.0
2018-Apr-13 10:58N 37°58' E 023°33'0 0.0
2018-Apr-13 10:28N 37°58' E 023°33'0 0.0
2018-Apr-13 09:58N 37°58' E 023°33'0 0.0
2018-Apr-13 09:28N 37°58' E 023°33'0 0.0
2018-Apr-13 08:58N 37°58' E 023°33'0 0.0
2018-Apr-13 08:30N 37°58' E 023°33'0 0.0
2018-Apr-13 08:00N 37°58' E 023°33'0 0.0
2018-Apr-13 07:30N 37°58' E 023°33'0 0.0
2018-Apr-13 07:00N 37°58' E 023°33'0 0.0
2018-Apr-13 06:29N 37°58' E 023°33'0 0.0
2018-Apr-13 06:00N 37°58' E 023°33'0 0.0
2018-Apr-13 05:30N 37°57' E 023°33'0 0.0
2018-Apr-13 05:00N 37°58' E 023°33'0 0.0
2018-Apr-13 04:30N 37°58' E 023°33'0 0.0
2018-Apr-13 04:00N 37°58' E 023°33'0 0.0
2018-Apr-13 03:29N 37°58' E 023°33'0 0.0
2018-Apr-13 02:58N 37°58' E 023°33'0 0.0
2018-Apr-13 02:30N 37°58' E 023°33'0 0.0
2018-Apr-13 01:59N 37°58' E 023°33'0 0.0
2018-Apr-13 01:29N 37°58' E 023°33'0 0.0
2018-Apr-13 00:59N 37°58' E 023°33'0 0.0
2018-Apr-13 00:29N 37°58' E 023°33'0 0.0
2018-Apr-12 23:59N 37°58' E 023°33'0 0.0
2018-Apr-12 23:29N 37°58' E 023°33'0 0.0
2018-Apr-12 22:58N 37°58' E 023°33'0 0.0
2018-Apr-12 22:31N 37°58' E 023°33'0 0.0
2018-Apr-12 22:00N 37°58' E 023°33'0 0.0
2018-Apr-12 21:29N 37°58' E 023°33'0 0.0
2018-Apr-12 20:59N 37°58' E 023°33'0 0.0
2018-Apr-12 20:28N 37°58' E 023°33'0 0.0
2018-Apr-12 19:55N 37°58' E 023°33'0 0.0
2018-Apr-12 19:28N 37°58' E 023°33'0 0.0
2018-Apr-12 18:58N 37°58' E 023°33'0 0.0
2018-Apr-12 18:28N 37°58' E 023°33'0 0.0
2018-Apr-12 17:58N 37°57' E 023°33'0 0.0
2018-Apr-12 17:28N 37°58' E 023°33'0 0.0
2018-Apr-12 16:58N 37°58' E 023°33'0 0.2
2018-Apr-12 16:30N 37°57' E 023°33'0 0.5
2018-Apr-12 16:00N 37°57' E 023°33'2 3.6
2018-Apr-12 15:28N 37°57' E 023°36'0 0.2
2018-Apr-12 14:58N 37°57' E 023°36'0 0.0
2018-Apr-12 14:28N 37°57' E 023°36'0 0.0
2018-Apr-12 13:58N 37°57' E 023°36'0 0.0
2018-Apr-12 13:28N 37°57' E 023°36'0 0.0
2018-Apr-12 12:58N 37°57' E 023°36'0 0.0
2018-Apr-12 12:28N 37°57' E 023°36'0 0.0
2018-Apr-12 11:59N 37°57' E 023°36'0 0.0
2018-Apr-12 11:28N 37°57' E 023°36'0 0.0
2018-Apr-12 10:58N 37°57' E 023°36'0 0.0
2018-Apr-12 10:28N 37°57' E 023°36'0 0.0
2018-Apr-12 09:59N 37°57' E 023°36'0 0.0
2018-Apr-12 09:30N 37°57' E 023°36'0 0.0
2018-Apr-12 09:00N 37°57' E 023°36'0 0.0
2018-Apr-12 08:30N 37°57' E 023°36'0 0.0
2018-Apr-12 07:59N 37°57' E 023°36'  

Dump ship's entire track history